Time;durP1;ratioP1;P1;durP2;ratioP2;P2;SDS_P1;SDS_P2;PMS_P1;PMS_P2;Temp;Humidity;BMP_temperature;BMP_pressure;BME280_temperature;BME280_humidity;BME280_pressure;Samples;Min_cycle;Max_cycle;Signal;HPM_P1;HPM_P2
2023/03/29 00:00:25;;;;;;;11.40;3.40;;;5.70;99.90;;;;;;5095854;28;20039;-77
2023/03/29 00:02:50;;;;;;;11.20;3.40;;;5.70;99.90;;;;;;5113612;28;20044;-77
2023/03/29 00:05:21;;;;;;;8.65;3.45;;;5.70;99.90;;;;;;5095953;28;20044;-78
2023/03/29 00:08:00;;;;;;;8.88;3.20;;;5.70;99.90;;;;;;5113833;28;20044;-77
2023/03/29 00:10:27;;;;;;;10.65;3.13;;;5.70;99.90;;;;;;5095755;28;20043;-77
2023/03/29 00:12:53;;;;;;;11.70;3.45;;;5.80;99.90;;;;;;5096737;28;20126;-76
2023/03/29 00:15:19;;;;;;;12.35;3.95;;;5.80;99.90;;;;;;5113873;28;20110;-76
2023/03/29 00:17:45;;;;;;;12.27;4.00;;;5.80;99.90;;;;;;5096446;28;20048;-76
2023/03/29 00:20:12;;;;;;;14.68;3.90;;;5.80;99.90;;;;;;5114632;28;20122;-77
2023/03/29 00:22:40;;;;;;;11.60;4.20;;;5.80;99.90;;;;;;5095850;28;20052;-76
2023/03/29 00:25:10;;;;;;;14.95;3.80;;;5.70;99.90;;;;;;5096470;28;20106;-77
2023/03/29 00:27:37;;;;;;;17.10;4.57;;;5.60;99.90;;;;;;5113524;28;20452;-76
2023/03/29 00:30:05;;;;;;;12.37;4.40;;;5.60;99.90;;;;;;5113409;28;20085;-75
2023/03/29 00:32:32;;;;;;;13.38;4.43;;;5.70;99.90;;;;;;5113615;28;20289;-77
2023/03/29 00:35:04;;;;;;;14.32;5.00;;;5.60;99.90;;;;;;5113660;28;20070;-77
2023/03/29 00:37:30;;;;;;;18.00;5.18;;;5.60;99.90;;;;;;5113768;28;20093;-75
2023/03/29 00:39:56;;;;;;;11.02;4.28;;;5.50;99.90;;;;;;5095457;28;20467;-75
2023/03/29 00:42:23;;;;;;;16.58;4.53;;;5.50;99.90;;;;;;5096035;28;20055;-77
2023/03/29 00:45:06;;;;;;;13.80;4.57;;;5.50;99.90;;;;;;5095491;28;20051;-75
2023/03/29 00:47:40;;;;;;;15.88;5.03;;;5.60;99.90;;;;;;5113290;28;20039;-77
2023/03/29 00:50:21;;;;;;;13.32;4.43;;;5.50;99.90;;;;;;5095302;28;20094;-78
2023/03/29 00:53:15;;;;;;;18.35;5.03;;;5.60;99.90;;;;;;5113709;28;20050;-79
2023/03/29 00:55:43;;;;;;;17.05;5.18;;;5.60;99.90;;;;;;5110908;28;20425;-76
2023/03/29 00:58:12;;;;;;;16.20;5.30;;;5.60;99.90;;;;;;5078572;28;20044;-76
2023/03/29 01:00:47;;;;;;;13.25;5.10;;;5.60;99.90;;;;;;5113681;28;20066;-78
2023/03/29 01:03:23;;;;;;;15.18;5.32;;;5.60;99.90;;;;;;5118095;28;20375;-77
2023/03/29 01:05:53;;;;;;;13.63;4.40;;;5.60;99.90;;;;;;5117614;28;20383;-78
2023/03/29 01:08:30;;;;;;;18.25;4.80;;;5.60;99.90;;;;;;5099287;28;20138;-80
2023/03/29 01:11:01;;;;;;;16.52;5.03;;;5.60;99.90;;;;;;5099765;28;20444;-78
2023/03/29 01:13:42;;;;;;;14.25;5.40;;;5.60;99.90;;;;;;5117273;28;20035;-78
2023/03/29 01:16:11;;;;;;;16.45;5.40;;;5.50;99.90;;;;;;5098792;28;20122;-78
2023/03/29 01:18:37;;;;;;;17.25;5.38;;;5.60;99.90;;;;;;5117862;28;20065;-78
2023/03/29 01:21:06;;;;;;;13.73;5.05;;;5.50;99.90;;;;;;5082206;28;20134;-76
2023/03/29 01:23:46;;;;;;;14.35;5.45;;;5.50;99.90;;;;;;5098700;28;20070;-77
2023/03/29 01:26:50;;;;;;;13.50;5.50;;;5.50;99.90;;;;;;5099627;28;20094;-76
2023/03/29 01:29:25;;;;;;;16.10;5.63;;;5.60;99.90;;;;;;5113415;28;20056;-75
2023/03/29 01:32:03;;;;;;;15.50;5.13;;;5.50;99.90;;;;;;5117230;28;20047;-76
2023/03/29 01:34:44;;;;;;;16.40;5.28;;;5.60;99.90;;;;;;5099750;28;20051;-76
2023/03/29 01:37:35;;;;;;;16.70;5.35;;;5.60;99.90;;;;;;5117135;28;20047;-76
2023/03/29 01:40:01;;;;;;;18.42;5.80;;;5.60;99.90;;;;;;5087031;28;20075;-77
2023/03/29 01:42:33;;;;;;;17.87;5.73;;;5.60;99.90;;;;;;5099518;28;20058;-77
2023/03/29 01:45:14;;;;;;;18.00;6.10;;;5.60;99.90;;;;;;5116375;28;20392;-77
2023/03/29 01:47:51;;;;;;;17.63;6.38;;;5.60;99.90;;;;;;5099397;28;20047;-78
2023/03/29 01:50:31;;;;;;;18.10;6.00;;;5.60;99.90;;;;;;5116335;28;20114;-75
2023/03/29 01:53:29;;;;;;;18.10;5.72;;;5.60;99.90;;;;;;5098244;28;20043;-75
2023/03/29 01:56:00;;;;;;;15.85;5.85;;;5.60;99.90;;;;;;5115271;28;20059;-77
2023/03/29 01:58:32;;;;;;;17.42;5.43;;;5.60;99.90;;;;;;5081409;28;20556;-77
2023/03/29 02:01:00;;;;;;;22.65;8.07;;;5.60;99.90;;;;;;5116511;28;20081;-78
2023/03/29 02:03:26;;;;;;;;;;;5.60;99.90;;;;;;5098713;28;20055;-77
2023/03/29 02:05:54;;;;;;;20.35;6.50;;;5.60;99.90;;;;;;5116125;28;20299;-77
2023/03/29 02:08:22;;;;;;;16.98;6.05;;;5.60;99.90;;;;;;5115555;28;20134;-77
2023/03/29 02:10:48;;;;;;;17.40;6.50;;;5.70;99.90;;;;;;5097797;28;20057;-77
2023/03/29 02:13:14;;;;;;;20.75;6.60;;;5.70;99.90;;;;;;5098086;28;20129;-78
2023/03/29 02:15:43;;;;;;;20.35;7.43;;;5.60;99.90;;;;;;5115971;28;20044;-76
2023/03/29 02:18:09;;;;;;;20.30;7.35;;;5.60;99.90;;;;;;5097839;28;20127;-77
2023/03/29 02:20:40;;;;;;;18.90;7.28;;;5.60;99.90;;;;;;5098295;28;20177;-78
2023/03/29 02:23:17;;;;;;;23.02;7.72;;;5.60;99.90;;;;;;5116017;28;20144;-77
2023/03/29 02:25:45;;;;;;;19.55;8.20;;;5.60;99.90;;;;;;5097929;28;20382;-77
2023/03/29 02:28:11;;;;;;;23.77;7.50;;;5.60;99.90;;;;;;5116326;28;20383;-77
2023/03/29 02:30:41;;;;;;;26.48;8.50;;;5.60;99.90;;;;;;5116093;28;20052;-76
2023/03/29 02:33:14;;;;;;;19.83;7.85;;;5.60;99.90;;;;;;5080645;28;20434;-77
2023/03/29 02:35:58;;;;;;;22.27;7.95;;;5.60;99.90;;;;;;5097462;28;20047;-77
2023/03/29 02:38:26;;;;;;;31.40;8.82;;;5.60;99.90;;;;;;5097356;28;20506;-77
2023/03/29 02:40:54;;;;;;;24.48;9.40;;;5.60;99.90;;;;;;5115267;28;20048;-77
2023/03/29 02:43:22;;;;;;;28.92;10.07;;;5.60;99.90;;;;;;5115831;28;20054;-77
2023/03/29 02:45:49;;;;;;;29.48;10.10;;;5.60;99.90;;;;;;5097307;28;20051;-77
2023/03/29 02:48:19;;;;;;;30.00;9.55;;;5.60;99.90;;;;;;5097162;28;20101;-78
2023/03/29 02:50:48;;;;;;;28.10;10.05;;;5.70;99.90;;;;;;5115143;28;20050;-77
2023/03/29 02:53:19;;;;;;;29.90;11.15;;;5.70;99.90;;;;;;5097180;28;20096;-76
2023/03/29 02:55:45;;;;;;;35.97;10.48;;;5.70;99.90;;;;;;5097223;28;20048;-77
2023/03/29 02:58:14;;;;;;;33.10;11.40;;;5.70;99.90;;;;;;5080216;28;20051;-77
2023/03/29 03:00:44;;;;;;;32.53;12.65;;;5.70;99.90;;;;;;5096994;28;20380;-77
2023/03/29 03:03:10;;;;;;;31.63;11.70;;;5.70;99.90;;;;;;5096726;28;20051;-75
2023/03/29 03:05:37;;;;;;;35.25;12.55;;;5.70;99.90;;;;;;5115150;28;20062;-78
2023/03/29 03:08:06;;;;;;;32.42;11.60;;;5.70;99.90;;;;;;5096948;28;20050;-76
2023/03/29 03:10:34;;;;;;;31.92;12.10;;;5.70;99.90;;;;;;5079758;28;20044;-74
2023/03/29 03:13:00;;;;;;;32.50;12.75;;;5.70;99.90;;;;;;5096794;28;20132;-78
2023/03/29 03:15:26;;;;;;;33.60;12.13;;;5.70;99.90;;;;;;5096805;28;20384;-76
2023/03/29 03:17:52;;;;;;;36.38;13.07;;;5.70;99.90;;;;;;5096887;28;20051;-76
2023/03/29 03:20:20;;;;;;;30.63;12.23;;;5.70;99.90;;;;;;5114668;28;20040;-76
2023/03/29 03:22:47;;;;;;;41.13;12.80;;;5.80;99.90;;;;;;5096675;28;20054;-78
2023/03/29 03:25:19;;;;;;;36.00;13.55;;;5.70;99.90;;;;;;5113852;28;20040;-77
2023/03/29 03:27:49;;;;;;;35.45;12.27;;;5.70;99.90;;;;;;5114620;28;20058;-78
2023/03/29 03:30:16;;;;;;;40.38;13.35;;;5.70;99.90;;;;;;5096573;28;20124;-77
2023/03/29 03:32:43;;;;;;;42.17;13.82;;;5.70;99.90;;;;;;5114429;28;20440;-75
2023/03/29 03:35:10;;;;;;;40.85;12.88;;;5.70;99.90;;;;;;5096348;28;20079;-75
2023/03/29 03:37:37;;;;;;;32.28;12.68;;;5.80;99.90;;;;;;5096332;28;20047;-77
2023/03/29 03:40:10;;;;;;;33.88;13.13;;;5.70;99.90;;;;;;5096292;28;20044;-75
2023/03/29 03:42:37;;;;;;;37.78;13.38;;;5.80;99.90;;;;;;5096649;28;20078;-75
2023/03/29 03:45:03;;;;;;;;;;;5.80;99.90;;;;;;5115043;28;20055;-76
2023/03/29 03:47:29;;;;;;;41.08;14.32;;;5.80;99.90;;;;;;5114129;28;20060;-76
2023/03/29 03:49:56;;;;;;;39.10;13.27;;;5.80;99.90;;;;;;5113758;28;20131;-76
2023/03/29 03:52:22;;;;;;;36.57;13.87;;;5.90;99.90;;;;;;5114105;28;20165;-76
2023/03/29 03:54:49;;;;;;;42.05;13.07;;;5.80;99.90;;;;;;5113815;28;20372;-76
2023/03/29 03:57:15;;;;;;;38.80;14.70;;;5.90;99.90;;;;;;5097085;28;20055;-77
2023/03/29 03:59:41;;;;;;;37.77;13.20;;;5.90;99.90;;;;;;5079145;28;20177;-78
2023/03/29 04:02:07;;;;;;;40.17;14.18;;;5.80;99.90;;;;;;5095815;28;20123;-76
2023/03/29 04:04:33;;;;;;;39.60;13.23;;;5.90;99.90;;;;;;5114251;28;20055;-78
2023/03/29 04:07:01;;;;;;;37.63;12.77;;;5.90;99.90;;;;;;5079743;28;20051;-77
2023/03/29 04:09:28;;;;;;;36.97;12.73;;;5.90;99.90;;;;;;5114600;28;20039;-77
2023/03/29 04:11:55;;;;;;;35.33;13.93;;;5.90;99.90;;;;;;5096508;28;20091;-78
2023/03/29 04:14:21;;;;;;;42.50;13.65;;;5.90;99.90;;;;;;5095925;28;20058;-77
2023/03/29 04:16:47;;;;;;;40.08;13.48;;;5.90;99.90;;;;;;5095490;28;20415;-77
2023/03/29 04:19:13;;;;;;;43.42;14.77;;;5.90;99.90;;;;;;5112862;28;20093;-78
2023/03/29 04:21:39;;;;;;;41.70;13.55;;;5.90;99.90;;;;;;5095771;28;20655;-76
2023/03/29 04:24:05;;;;;;;45.13;14.13;;;5.90;99.90;;;;;;5113729;28;20086;-77
2023/03/29 04:26:30;;;;;;;34.83;13.30;;;5.90;99.90;;;;;;5112665;28;20047;-77
2023/03/29 04:28:56;;;;;;;38.47;13.63;;;5.90;99.90;;;;;;5112475;28;20040;-77
2023/03/29 04:31:22;;;;;;;39.75;13.13;;;5.90;99.90;;;;;;5096411;28;20340;-77
2023/03/29 04:33:48;;;;;;;39.45;12.80;;;6.00;99.90;;;;;;5113028;28;20048;-76
2023/03/29 04:36:14;;;;;;;37.85;13.95;;;5.90;99.90;;;;;;5114780;28;20166;-77
2023/03/29 04:38:41;;;;;;;35.45;13.38;;;5.90;99.90;;;;;;5099927;28;20051;-79
2023/03/29 04:41:12;;;;;;;38.08;13.85;;;5.90;99.90;;;;;;5118505;28;20119;-79
2023/03/29 04:43:40;;;;;;;46.20;14.40;;;5.90;99.90;;;;;;5100583;28;20131;-76
2023/03/29 04:46:06;;;;;;;37.60;13.75;;;5.90;99.90;;;;;;5099699;28;20063;-76
2023/03/29 04:48:35;;;;;;;36.05;12.40;;;5.90;99.90;;;;;;5099138;28;20040;-77
2023/03/29 04:51:01;;;;;;;38.45;12.50;;;6.00;99.90;;;;;;5117773;28;20126;-77
2023/03/29 04:53:26;;;;;;;41.47;12.45;;;5.90;99.90;;;;;;5116530;28;20132;-74
2023/03/29 04:55:54;;;;;;;42.92;13.80;;;5.90;99.90;;;;;;5117529;28;20510;-73
2023/03/29 04:58:20;;;;;;;36.80;13.50;;;5.90;99.90;;;;;;5117542;28;20043;-77
2023/03/29 05:00:46;;;;;;;39.33;13.48;;;5.80;99.90;;;;;;5099615;28;20097;-76
2023/03/29 05:03:13;;;;;;;43.70;12.13;;;5.80;99.90;;;;;;5117396;28;20467;-77
2023/03/29 05:05:40;;;;;;;33.38;11.45;;;5.80;99.90;;;;;;5099109;28;20058;-76
2023/03/29 05:08:06;;;;;;;36.88;12.48;;;5.70;99.90;;;;;;5117540;28;20098;-77
2023/03/29 05:10:32;;;;;;;36.25;12.05;;;5.70;99.90;;;;;;5117510;28;20079;-74
2023/03/29 05:12:57;;;;;;;36.35;12.65;;;5.70;99.90;;;;;;5099460;28;20101;-77
2023/03/29 05:15:23;;;;;;;34.88;11.65;;;5.70;99.90;;;;;;5117379;28;20119;-76
2023/03/29 05:17:49;;;;;;;44.50;13.32;;;5.60;99.90;;;;;;5116093;28;20044;-76
2023/03/29 05:20:16;;;;;;;38.47;13.15;;;5.60;99.90;;;;;;5117212;28;20104;-77
2023/03/29 05:22:42;;;;;;;34.95;11.90;;;5.60;99.90;;;;;;5099040;28;20044;-77
2023/03/29 05:25:10;;;;;;;38.75;11.65;;;5.60;99.90;;;;;;5117517;28;20121;-77
2023/03/29 05:27:36;;;;;;;39.92;12.10;;;5.60;99.90;;;;;;5117120;28;20052;-76
2023/03/29 05:30:02;;;;;;;39.15;12.10;;;5.60;99.90;;;;;;5116990;28;20081;-76
2023/03/29 05:32:28;;;;;;;46.25;13.40;;;5.70;99.90;;;;;;5098618;28;20069;-77
2023/03/29 05:34:54;;;;;;;37.70;13.05;;;5.60;99.90;;;;;;5098765;28;20051;-77
2023/03/29 05:37:20;;;;;;;40.67;13.07;;;5.60;99.90;;;;;;5117120;28;20043;-77
2023/03/29 05:39:45;;;;;;;39.85;12.77;;;5.60;99.90;;;;;;5081656;28;20040;-79
2023/03/29 05:42:14;;;;;;;40.35;13.70;;;5.70;99.90;;;;;;5081380;28;20052;-79
2023/03/29 05:44:40;;;;;;;39.25;12.68;;;5.70;99.90;;;;;;5098721;28;20040;-77
2023/03/29 05:47:06;;;;;;;46.70;13.13;;;5.70;99.90;;;;;;5098989;28;20043;-79
2023/03/29 05:49:32;;;;;;;35.88;13.68;;;5.70;99.90;;;;;;5097544;28;20065;-78
2023/03/29 05:51:59;;;;;;;38.38;13.15;;;5.70;99.90;;;;;;5081630;28;20139;-75
2023/03/29 05:54:26;;;;;;;42.40;13.73;;;5.80;99.90;;;;;;5098173;28;20050;-77
2023/03/29 05:56:51;;;;;;;45.75;13.45;;;5.80;99.90;;;;;;5116312;28;20126;-78
2023/03/29 05:59:18;;;;;;;48.75;13.25;;;5.80;99.90;;;;;;5081694;28;20112;-77
2023/03/29 06:01:47;;;;;;;40.42;13.15;;;5.80;99.90;;;;;;5098015;28;20043;-77
2023/03/29 06:04:14;;;;;;;41.67;13.90;;;5.80;99.90;;;;;;5098586;28;20044;-77
2023/03/29 06:06:40;;;;;;;45.70;13.63;;;5.80;99.90;;;;;;5098190;28;20130;-78
2023/03/29 06:09:07;;;;;;;42.60;13.23;;;5.80;99.90;;;;;;5098110;28;20481;-77
2023/03/29 06:11:33;;;;;;;51.00;14.20;;;5.90;99.90;;;;;;5098706;28;20047;-76
2023/03/29 06:14:01;;;;;;;46.10;13.60;;;5.90;99.90;;;;;;5098076;28;20411;-78
2023/03/29 06:16:27;;;;;;;;;;;5.90;99.90;;;;;;5098624;28;20043;-77
2023/03/29 06:18:54;;;;;;;49.22;14.38;;;6.00;99.90;;;;;;5097758;28;19927;-75
2023/03/29 06:21:20;;;;;;;49.63;14.52;;;5.90;99.90;;;;;;5098757;28;20356;-77
2023/03/29 06:23:46;;;;;;;46.53;15.40;;;6.00;99.90;;;;;;5097900;28;20047;-76
2023/03/29 06:26:12;;;;;;;43.50;14.13;;;6.00;99.90;;;;;;5098906;28;20040;-76
2023/03/29 06:28:38;;;;;;;44.92;13.85;;;6.00;99.90;;;;;;5098430;28;20363;-76
2023/03/29 06:31:04;;;;;;;43.35;13.93;;;6.10;99.90;;;;;;5095796;28;20060;-75
2023/03/29 06:33:31;;;;;;;42.65;12.85;;;6.20;99.90;;;;;;5096278;28;20091;-78
2023/03/29 06:35:57;;;;;;;44.63;13.35;;;6.20;99.90;;;;;;5096343;28;20051;-75
2023/03/29 06:38:25;;;;;;;39.70;13.20;;;6.20;99.90;;;;;;5095608;28;20039;-75
2023/03/29 06:40:51;;;;;;;42.05;13.13;;;6.30;99.90;;;;;;5094471;28;20044;-78
2023/03/29 06:43:17;;;;;;;43.20;13.50;;;6.30;99.90;;;;;;5095748;28;20048;-76
2023/03/29 06:45:43;;;;;;;42.03;14.02;;;6.40;99.90;;;;;;5095064;28;20444;-77
2023/03/29 06:48:10;;;;;;;44.05;14.05;;;6.50;99.90;;;;;;5095786;28;20055;-76
2023/03/29 06:50:36;;;;;;;40.53;12.85;;;6.50;99.90;;;;;;5095146;28;20169;-77
2023/03/29 06:53:03;;;;;;;51.22;14.27;;;6.50;99.90;;;;;;5093974;28;20131;-77
2023/03/29 06:55:30;;;;;;;40.58;13.35;;;6.50;99.90;;;;;;5094640;28;20048;-78
2023/03/29 06:57:56;;;;;;;37.95;13.15;;;6.60;99.90;;;;;;5077028;28;20050;-75
2023/03/29 07:00:29;;;;;;;38.70;12.68;;;6.70;99.90;;;;;;5094447;28;20093;-77
2023/03/29 07:02:57;;;;;;;36.50;12.43;;;6.70;99.90;;;;;;5095629;28;20048;-76
2023/03/29 07:05:26;;;;;;;45.30;14.20;;;6.70;99.90;;;;;;5095006;28;20373;-77
2023/03/29 07:07:58;;;;;;;47.38;12.63;;;6.70;99.90;;;;;;5094963;28;20044;-76
2023/03/29 07:10:31;;;;;;;41.38;11.90;;;6.70;99.90;;;;;;5078354;28;20036;-74
2023/03/29 07:13:00;;;;;;;37.60;12.15;;;6.80;99.90;;;;;;5095567;28;20109;-79
2023/03/29 07:15:27;;;;;;;38.38;11.68;;;6.80;99.90;;;;;;5093977;28;20044;-77
2023/03/29 07:17:54;;;;;;;35.72;11.48;;;6.90;99.90;;;;;;5094728;28;20048;-78
2023/03/29 07:20:21;;;;;;;32.60;12.15;;;6.90;99.90;;;;;;5094773;28;20124;-76
2023/03/29 07:22:49;;;;;;;34.80;11.70;;;6.90;99.90;;;;;;5093492;28;20048;-77
2023/03/29 07:25:17;;;;;;;33.30;11.70;;;6.90;99.90;;;;;;5093541;28;20083;-76
2023/03/29 07:27:45;;;;;;;38.17;12.50;;;6.90;99.90;;;;;;5094635;28;20097;-76
2023/03/29 07:30:15;;;;;;;33.15;10.88;;;6.90;99.90;;;;;;5093604;28;20074;-78
2023/03/29 07:32:43;;;;;;;32.22;11.20;;;7.00;99.90;;;;;;5093930;28;20090;-77
2023/03/29 07:35:11;;;;;;;39.80;11.50;;;7.00;99.90;;;;;;5092954;28;20051;-76
2023/03/29 07:37:37;;;;;;;32.13;10.40;;;7.10;99.90;;;;;;5092989;28;20055;-77
2023/03/29 07:40:08;;;;;;;33.93;11.67;;;7.10;99.90;;;;;;5093284;28;20109;-76
2023/03/29 07:42:37;;;;;;;35.83;10.93;;;7.20;99.90;;;;;;5093807;28;20044;-76
2023/03/29 07:45:05;;;;;;;33.85;10.50;;;7.20;99.90;;;;;;5076335;28;20048;-76
2023/03/29 07:47:31;;;;;;;28.90;10.52;;;7.20;99.90;;;;;;5093122;28;20055;-76
2023/03/29 07:49:58;;;;;;;26.60;10.20;;;7.30;99.90;;;;;;5060011;28;20051;-76
2023/03/29 07:52:26;;;;;;;35.20;11.50;;;7.40;99.90;;;;;;5092682;28;20097;-74
2023/03/29 07:54:54;;;;;;;28.52;10.25;;;7.40;99.90;;;;;;5092562;28;20048;-77
2023/03/29 07:57:21;;;;;;;31.27;10.43;;;7.50;99.90;;;;;;5076409;28;20056;-77
2023/03/29 07:59:46;;;;;;;33.00;9.88;;;7.50;99.90;;;;;;5094053;28;20144;-73
2023/03/29 08:02:12;;;;;;;26.92;9.65;;;7.60;99.90;;;;;;5093745;28;20130;-75
2023/03/29 08:04:39;;;;;;;30.95;9.77;;;7.70;99.90;;;;;;5094543;28;20082;-78
2023/03/29 08:07:05;;;;;;;31.43;9.93;;;7.80;99.90;;;;;;5093398;28;20044;-77
2023/03/29 08:09:30;;;;;;;34.10;10.18;;;7.90;99.90;;;;;;5092489;28;20407;-75
2023/03/29 08:11:56;;;;;;;29.23;9.98;;;7.90;99.90;;;;;;5075135;28;20044;-73
2023/03/29 08:14:22;;;;;;;27.35;9.25;;;8.00;99.90;;;;;;5076062;28;20056;-76
2023/03/29 08:16:50;;;;;;;27.13;9.48;;;8.00;99.90;;;;;;5093627;28;20040;-73
2023/03/29 08:19:16;;;;;;;25.23;9.55;;;8.10;99.90;;;;;;5092500;28;20054;-75
2023/03/29 08:21:42;;;;;;;26.70;9.38;;;8.30;99.90;;;;;;5091811;28;20565;-78
2023/03/29 08:24:08;;;;;;;28.05;9.57;;;8.30;99.90;;;;;;5092066;28;20083;-76
2023/03/29 08:26:33;;;;;;;23.88;8.93;;;8.30;99.90;;;;;;5075454;28;20089;-76
2023/03/29 08:28:59;;;;;;;28.13;9.18;;;8.40;99.90;;;;;;5075461;28;20040;-75
2023/03/29 08:31:25;;;;;;;27.77;9.85;;;8.50;99.90;;;;;;5092145;28;20476;-75
2023/03/29 08:33:52;;;;;;;24.05;9.27;;;8.60;99.90;;;;;;5091719;28;20538;-74
2023/03/29 08:36:18;;;;;;;24.02;8.98;;;8.60;99.90;;;;;;5092382;28;20051;-76
2023/03/29 08:38:44;;;;;;;25.95;9.15;;;8.70;99.90;;;;;;5093828;28;20048;-74
2023/03/29 08:41:58;;;;;;;23.95;9.68;;;8.70;99.90;;;;;;5092098;28;20052;-75
2023/03/29 08:44:48;;;;;;;27.20;8.88;;;8.70;99.90;;;;;;5079140;28;20062;-75
2023/03/29 08:47:42;;;;;;;24.63;8.75;;;8.80;99.90;;;;;;5093810;28;20048;-76
2023/03/29 08:50:10;;;;;;;28.13;8.80;;;8.70;99.90;;;;;;5093173;28;20573;-76
2023/03/29 08:52:53;;;;;;;27.83;8.98;;;8.90;99.90;;;;;;5075993;28;20056;-76
2023/03/29 08:55:34;;;;;;;28.48;11.32;;;8.90;99.90;;;;;;5091671;28;20484;-76
2023/03/29 08:58:06;;;;;;;31.50;9.13;;;8.90;99.90;;;;;;5091924;28;20043;-75
2023/03/29 09:00:48;;;;;;;24.52;9.38;;;9.00;99.90;;;;;;5093372;28;20044;-75
2023/03/29 09:03:44;;;;;;;22.52;8.60;;;9.10;99.90;;;;;;5092824;28;20504;-74
2023/03/29 09:06:12;;;;;;;24.08;8.75;;;9.20;99.90;;;;;;5093657;28;20048;-76
2023/03/29 09:08:45;;;;;;;28.73;8.65;;;9.20;99.90;;;;;;5092595;28;20468;-76
2023/03/29 09:11:23;;;;;;;25.35;9.07;;;9.20;99.90;;;;;;5093297;28;20480;-76
2023/03/29 09:14:22;;;;;;;23.60;9.25;;;9.30;99.90;;;;;;5091982;28;20052;-78
2023/03/29 09:17:02;;;;;;;22.58;8.50;;;9.30;99.90;;;;;;5092145;28;20048;-76
2023/03/29 09:20:00;;;;;;;24.50;9.00;;;9.40;99.90;;;;;;5075469;28;20048;-76
2023/03/29 09:22:42;;;;;;;27.13;9.25;;;9.50;99.90;;;;;;5110460;28;20083;-76
2023/03/29 09:25:25;;;;;;;27.52;9.45;;;9.70;99.90;;;;;;5095252;28;20055;-79
2023/03/29 09:27:58;;;;;;;22.55;9.30;;;9.60;99.90;;;;;;5096904;28;20045;-77
2023/03/29 09:30:35;;;;;;;23.98;8.40;;;9.70;99.90;;;;;;5096128;28;20052;-76
2023/03/29 09:33:16;;;;;;;25.92;9.43;;;9.80;99.90;;;;;;5095270;28;20061;-76
2023/03/29 09:36:07;;;;;;;23.52;9.18;;;10.00;99.90;;;;;;5096940;28;20380;-77
2023/03/29 09:38:38;;;;;;;26.33;9.23;;;10.00;99.90;;;;;;5096423;28;20056;-77
2023/03/29 09:41:29;;;;;;;28.00;9.75;;;10.10;99.90;;;;;;5096084;28;20036;-76
2023/03/29 09:43:58;;;;;;;25.38;9.40;;;10.10;99.90;;;;;;5097898;28;20491;-76
2023/03/29 09:46:40;;;;;;;26.23;9.25;;;10.10;99.90;;;;;;5095359;28;20617;-76
2023/03/29 09:49:16;;;;;;;23.85;9.73;;;10.40;99.90;;;;;;5097095;28;20051;-75
2023/03/29 09:51:45;;;;;;;25.10;9.40;;;10.50;99.90;;;;;;5096746;28;20060;-75
2023/03/29 09:54:11;;;;;;;30.23;9.90;;;10.60;99.90;;;;;;5094814;28;20392;-74
2023/03/29 09:56:38;;;;;;;30.55;10.57;;;10.60;99.90;;;;;;5112230;28;20185;-76
2023/03/29 09:59:04;;;;;;;24.65;9.70;;;10.70;99.90;;;;;;5095958;28;20054;-76
2023/03/29 10:01:37;;;;;;;28.10;10.15;;;10.70;99.90;;;;;;5095961;28;20046;-76
2023/03/29 10:04:06;;;;;;;30.30;11.15;;;10.90;99.90;;;;;;5095738;28;20058;-72
2023/03/29 10:06:33;;;;;;;30.65;10.95;;;10.80;99.90;;;;;;5095790;28;20101;-75
2023/03/29 10:08:59;;;;;;;27.38;10.77;;;10.80;99.90;;;;;;5077791;28;20067;-76
2023/03/29 10:11:29;;;;;;;22.98;10.32;;;11.00;99.90;;;;;;5095752;28;20079;-76
2023/03/29 10:14:01;;;;;;;26.05;10.10;;;11.10;99.90;;;;;;5095648;28;20526;-75
2023/03/29 10:16:37;;;;;;;24.20;9.68;;;11.10;99.90;;;;;;5094983;28;20044;-76
2023/03/29 10:19:33;;;;;;;30.45;10.60;;;11.20;99.90;;;;;;5095039;28;20051;-75
2023/03/29 10:22:04;;;;;;;25.88;9.93;;;11.20;99.90;;;;;;5089329;28;20060;-75
2023/03/29 10:24:30;;;;;;;22.27;9.85;;;11.30;99.90;;;;;;5077447;28;20098;-74
2023/03/29 10:27:06;;;;;;;21.23;10.43;;;11.30;99.90;;;;;;5094756;28;20054;-75
2023/03/29 10:29:41;;;;;;;21.60;9.15;;;11.60;99.90;;;;;;5078621;28;20044;-75
2023/03/29 10:32:24;;;;;;;24.65;11.05;;;11.80;99.90;;;;;;5096941;28;20048;-73
2023/03/29 10:34:50;;;;;;;23.90;9.55;;;12.00;99.90;;;;;;5081138;28;20082;-76
2023/03/29 10:37:21;;;;;;;25.02;11.13;;;12.10;99.90;;;;;;5080550;28;20093;-76
2023/03/29 10:39:48;;;;;;;23.92;9.45;;;12.00;99.90;;;;;;5080413;28;20078;-74
2023/03/29 10:42:17;;;;;;;25.10;9.63;;;12.00;99.90;;;;;;5115468;28;20054;-75
2023/03/29 10:44:55;;;;;;;21.90;9.02;;;12.30;99.90;;;;;;5115417;28;20048;-74
2023/03/29 10:47:21;;;;;;;22.45;9.70;;;12.50;99.90;;;;;;5116711;28;20124;-76
2023/03/29 10:49:57;;;;;;;22.67;9.13;;;12.60;99.90;;;;;;5098132;28;20074;-74
2023/03/29 10:52:24;;;;;;;23.83;9.40;;;12.70;99.90;;;;;;5115535;28;20055;-75
2023/03/29 10:54:52;;;;;;;24.08;10.00;;;12.80;99.90;;;;;;5080434;28;20055;-75
2023/03/29 10:57:51;;;;;;;25.48;9.13;;;12.90;99.90;;;;;;5115125;28;20165;-76
2023/03/29 11:00:55;;;;;;;21.52;9.32;;;13.20;99.90;;;;;;5089992;28;20451;-76
2023/03/29 11:03:58;;;;;;;20.40;8.40;;;13.40;99.90;;;;;;5090489;28;20059;-75
2023/03/29 11:06:36;;;;;;;21.52;9.50;;;13.50;99.90;;;;;;5089379;28;20430;-75
2023/03/29 11:09:17;;;;;;;20.40;9.00;;;13.60;99.90;;;;;;5096986;28;20055;-76
2023/03/29 11:12:15;;;;;;;21.42;9.27;;;13.60;99.90;;;;;;5097227;28;20052;-75
2023/03/29 11:14:41;;;;;;;23.52;9.13;;;13.70;99.90;;;;;;5097623;28;20043;-76
2023/03/29 11:17:44;;;;;;;19.85;9.38;;;13.70;99.90;;;;;;5114728;28;20121;-75
2023/03/29 11:20:16;;;;;;;24.13;9.18;;;13.60;99.90;;;;;;5097110;28;20039;-76
2023/03/29 11:22:51;;;;;;;21.13;9.32;;;13.60;99.90;;;;;;5114733;28;20050;-77
2023/03/29 11:25:39;;;;;;;22.00;9.15;;;13.50;99.90;;;;;;5114648;28;20052;-77
2023/03/29 11:28:41;;;;;;;18.63;8.75;;;13.80;99.90;;;;;;5079908;28;20087;-77
2023/03/29 11:31:31;;;;;;;20.33;8.32;;;13.90;99.90;;;;;;5114067;28;20043;-75
2023/03/29 11:34:25;;;;;;;19.58;9.00;;;13.80;99.90;;;;;;5114860;28;20056;-75
2023/03/29 11:37:03;;;;;;;19.92;8.77;;;13.90;99.90;;;;;;5097057;28;20383;-74
2023/03/29 11:39:46;;;;;;;21.95;8.77;;;13.90;99.90;;;;;;5115024;28;20044;-75
2023/03/29 11:42:23;;;;;;;21.98;8.77;;;14.00;99.90;;;;;;5115112;28;20048;-76
2023/03/29 11:44:52;;;;;;;17.35;7.90;;;14.20;99.90;;;;;;5097302;28;20054;-78
2023/03/29 11:47:25;;;;;;;21.48;9.30;;;14.00;99.90;;;;;;5096486;28;20138;-77
2023/03/29 11:50:23;;;;;;;20.48;8.80;;;13.90;99.90;;;;;;5079622;28;20050;-77
2023/03/29 11:52:56;;;;;;;18.77;8.43;;;14.10;99.90;;;;;;5113651;28;20535;-76
2023/03/29 11:55:29;;;;;;;17.75;9.02;;;14.10;99.90;;;;;;5096360;28;20059;-76
2023/03/29 11:58:09;;;;;;;20.15;8.88;;;14.20;99.90;;;;;;5114419;28;20047;-75
2023/03/29 12:00:55;;;;;;;20.45;8.25;;;14.20;99.90;;;;;;5114857;28;20081;-79
2023/03/29 12:03:41;;;;;;;21.92;8.50;;;14.50;99.90;;;;;;5113739;28;20047;-75
2023/03/29 12:06:20;;;;;;;18.90;8.25;;;14.40;99.90;;;;;;5096531;28;20055;-77
2023/03/29 12:08:57;;;;;;;18.27;8.35;;;14.60;99.90;;;;;;5097112;28;20090;-76
2023/03/29 12:11:32;;;;;;;21.75;8.48;;;14.80;99.90;;;;;;5114042;28;20083;-75
2023/03/29 12:14:09;;;;;;;18.40;8.68;;;14.70;99.90;;;;;;5113925;28;20487;-76
2023/03/29 12:16:39;;;;;;;20.67;8.48;;;14.90;99.90;;;;;;5096078;28;20047;-75
2023/03/29 12:19:29;;;;;;;25.70;8.75;;;15.00;99.90;;;;;;5113942;28;20043;-75
2023/03/29 12:21:58;;;;;;;17.15;8.45;;;14.90;99.90;;;;;;5083899;28;20063;-76
2023/03/29 12:24:31;;;;;;;17.95;8.23;;;14.40;99.90;;;;;;5113910;28;20080;-75
2023/03/29 12:27:07;;;;;;;19.27;8.15;;;14.80;99.90;;;;;;5063388;28;20039;-73
2023/03/29 12:30:03;;;;;;;20.20;9.10;;;14.90;99.90;;;;;;5113769;28;20050;-75
2023/03/29 12:32:55;;;;;;;20.70;8.27;;;14.80;99.90;;;;;;5079351;28;21306;-75
2023/03/29 12:35:32;;;;;;;19.92;7.85;;;14.90;99.90;;;;;;5113681;28;20050;-78
2023/03/29 12:38:18;;;;;;;18.85;8.18;;;14.60;99.90;;;;;;5114544;28;20399;-74
2023/03/29 12:40:53;;;;;;;21.02;8.63;;;14.80;99.90;;;;;;5114049;28;20117;-75
2023/03/29 12:43:29;;;;;;;17.90;8.65;;;14.70;99.90;;;;;;5095789;28;20059;-75
2023/03/29 12:46:04;;;;;;;24.00;9.50;;;14.70;99.90;;;;;;5113886;28;20044;-75
2023/03/29 12:48:30;;;;;;;19.85;10.18;;;14.50;99.90;;;;;;5112929;28;20130;-77
2023/03/29 12:51:06;;;;;;;20.55;8.60;;;14.50;99.90;;;;;;5113353;28;20039;-76
2023/03/29 12:53:39;;;;;;;20.98;9.10;;;14.20;99.90;;;;;;5114674;28;20112;-77
2023/03/29 12:56:07;;;;;;;22.98;8.95;;;14.30;99.90;;;;;;5096699;28;20131;-76
2023/03/29 12:58:39;;;;;;;23.33;9.60;;;14.60;99.90;;;;;;5116841;28;20408;-75
2023/03/29 13:01:30;;;;;;;22.23;9.77;;;14.70;99.90;;;;;;5117876;28;20043;-76
2023/03/29 13:03:58;;;;;;;28.77;8.13;;;14.70;99.90;;;;;;5099760;28;20058;-75